createdAt,value
2018-01-31T01:52:21.203Z,78.49
2018-01-31T01:52:58.996Z,78.77
2018-01-31T01:53:39.553Z,78.81
2018-01-31T01:54:20.119Z,78.62
2018-01-31T01:55:00.674Z,78.77
2018-01-31T01:55:41.240Z,78.96
2018-01-31T01:56:21.789Z,78.87
2018-01-31T01:57:02.345Z,79.06
2018-01-31T01:57:42.902Z,78.96
2018-01-31T01:58:23.454Z,79.06
2018-01-31T01:59:04.020Z,78.96
2018-01-31T01:59:44.578Z,78.87
2018-01-31T02:00:25.127Z,78.87
2018-01-31T02:01:05.708Z,78.77
2018-01-31T02:01:46.275Z,78.87
2018-01-31T02:02:26.830Z,78.77
2018-01-31T02:03:07.391Z,78.96
2018-01-31T02:03:47.960Z,78.96
2018-01-31T02:04:28.513Z,79.06
2018-01-31T02:05:09.062Z,79.25
2018-01-31T02:05:49.648Z,78.87
2018-01-31T02:06:30.220Z,78.87
2018-01-31T02:07:10.772Z,78.77
2018-01-31T02:07:51.330Z,78.87
2018-01-31T02:08:31.901Z,78.58
2018-01-31T02:09:12.466Z,78.58
2018-01-31T02:09:53.046Z,78.77
2018-01-31T02:10:33.586Z,78.96
2018-01-31T02:11:14.155Z,78.96
2018-01-31T02:11:54.714Z,78.87
2018-01-31T02:12:35.276Z,79.25
2018-01-31T02:13:15.847Z,79.15
2018-01-31T02:13:56.408Z,78.96
2018-01-31T02:14:36.964Z,78.58
2018-01-31T02:15:17.550Z,79.53
2018-01-31T02:15:58.105Z,79.44
2018-01-31T02:16:38.653Z,79.63
2018-01-31T02:17:19.221Z,79.34
2018-01-31T02:17:59.783Z,79.25
2018-01-31T02:18:40.345Z,79.53
2018-01-31T02:19:20.919Z,79.63
2018-01-31T02:20:01.483Z,79.53
2018-01-31T02:20:42.034Z,79.53
2018-01-31T02:21:22.589Z,79.63
2018-01-31T02:22:03.160Z,79.91
2018-01-31T02:22:43.724Z,79.82
2018-01-31T02:23:24.295Z,79.82
2018-01-31T02:24:04.860Z,80
2018-01-31T02:24:45.416Z,80
2018-01-31T02:25:25.992Z,80
2018-01-31T02:26:06.547Z,79.91
2018-01-31T02:26:47.119Z,80
2018-01-31T02:27:27.679Z,79.91
2018-01-31T02:28:08.234Z,79.63
2018-01-31T02:28:48.784Z,80
2018-01-31T02:29:29.366Z,79.82
2018-01-31T02:30:09.935Z,79.72
2018-01-31T02:30:50.499Z,79.82
2018-01-31T02:31:31.081Z,80
2018-01-31T02:32:11.648Z,80.19
2018-01-31T02:32:52.209Z,80
2018-01-31T02:33:32.774Z,79.91
2018-01-31T02:34:13.334Z,79.91
2018-01-31T02:34:53.888Z,79.91
2018-01-31T02:35:34.438Z,80.1
2018-01-31T02:36:15.010Z,80.29
2018-01-31T02:36:55.600Z,80.29
2018-01-31T02:37:36.217Z,79.91
2018-01-31T02:38:16.798Z,80.29
2018-01-31T02:38:57.355Z,80.1
2018-01-31T02:39:37.915Z,80.1
2018-01-31T02:40:18.486Z,79.72
2018-01-31T02:40:59.048Z,79.91
2018-01-31T02:41:39.601Z,79.91
2018-01-31T02:42:20.163Z,80.1
2018-01-31T02:43:00.720Z,80
2018-01-31T02:43:41.286Z,80.29
2018-01-31T02:44:21.825Z,80.38
2018-01-31T02:45:02.408Z,80.19
2018-01-31T02:45:42.956Z,80.19
2018-01-31T02:46:23.527Z,80
2018-01-31T02:47:04.094Z,80.67
2018-01-31T02:47:44.644Z,80.29
2018-01-31T02:48:25.217Z,80.67
2018-01-31T02:49:05.786Z,80.19
2018-01-31T02:49:46.349Z,80.38
2018-01-31T02:50:26.932Z,80
2018-01-31T02:51:07.547Z,80.19
2018-01-31T02:51:48.115Z,80
2018-01-31T02:52:28.667Z,80.1
2018-01-31T02:53:09.236Z,80.57
2018-01-31T02:53:49.810Z,80.57
2018-01-31T02:54:30.383Z,80.57
2018-01-31T02:55:10.956Z,80.76
2018-01-31T02:55:51.504Z,80.67
2018-01-31T02:56:32.055Z,80.57
2018-01-31T02:57:12.634Z,80.38
2018-01-31T02:57:53.216Z,80.19
2018-01-31T02:58:33.780Z,80.1
2018-01-31T02:59:14.349Z,80.1
2018-01-31T02:59:54.909Z,80.19
2018-01-31T03:00:35.462Z,80.19
2018-01-31T03:01:16.014Z,80
2018-01-31T03:01:56.565Z,80
2018-01-31T03:02:37.134Z,80.48
2018-01-31T03:03:17.684Z,80.48
2018-01-31T03:03:58.235Z,80.67
2018-01-31T03:04:38.790Z,80.48
2018-01-31T03:05:19.339Z,80.19
2018-01-31T03:05:59.890Z,80.38
2018-01-31T03:06:40.443Z,80
2018-01-31T03:07:20.996Z,79.82
2018-01-31T03:08:01.552Z,80.29
2018-01-31T03:08:42.109Z,80.19
2018-01-31T03:09:22.673Z,80.29
2018-01-31T03:10:03.232Z,80.29
2018-01-31T03:10:43.791Z,80.19
2018-01-31T03:11:24.356Z,80
2018-01-31T03:12:04.900Z,80.29
2018-01-31T03:12:45.457Z,80.29
2018-01-31T03:13:26.010Z,80.57
2018-01-31T03:14:06.578Z,80.57
2018-01-31T03:14:47.143Z,80
2018-01-31T03:15:27.729Z,80
2018-01-31T03:16:08.280Z,79.82
2018-01-31T03:16:48.839Z,80
2018-01-31T03:17:29.397Z,80.29
2018-01-31T03:18:09.948Z,80.29
2018-01-31T03:18:50.499Z,80
2018-01-31T03:19:31.054Z,79.91
2018-01-31T03:20:11.616Z,79.91
2018-01-31T03:20:52.172Z,80
2018-01-31T03:21:32.753Z,79.72
2018-01-31T03:22:13.302Z,79.96
2018-01-31T03:22:53.852Z,79.87
2018-01-31T03:23:34.422Z,80.25
2018-01-31T03:24:14.990Z,80.25
2018-01-31T03:24:55.569Z,79.96
2018-01-31T03:25:36.121Z,79.96
2018-01-31T03:26:16.762Z,80.44
2018-01-31T03:26:57.322Z,80.63
2018-01-31T03:27:37.886Z,80.63
2018-01-31T03:28:18.449Z,80.34
2018-01-31T03:28:58.989Z,79.87
2018-01-31T03:29:39.566Z,80.53
2018-01-31T03:30:20.115Z,80.63
2018-01-31T03:31:00.663Z,80.15
2018-01-31T03:31:41.224Z,80.25
2018-01-31T03:32:21.781Z,80.15
2018-01-31T03:33:02.337Z,79.87
2018-01-31T03:33:42.900Z,80.15
2018-01-31T03:34:23.464Z,80.34
2018-01-31T03:35:04.042Z,80.15
2018-01-31T03:35:44.602Z,79.77
2018-01-31T03:36:25.166Z,80.15
2018-01-31T03:37:05.724Z,80.53
2018-01-31T03:37:46.314Z,80.63
2018-01-31T03:38:26.866Z,80.63
2018-01-31T03:39:07.431Z,80.44
2018-01-31T03:39:47.985Z,80.44
2018-01-31T03:40:28.543Z,80.44
2018-01-31T03:41:09.096Z,80.34
2018-01-31T03:41:49.654Z,80.53
2018-01-31T03:42:30.221Z,80.34
2018-01-31T03:43:10.780Z,80.25
2018-01-31T03:43:51.354Z,80.34
2018-01-31T03:44:31.917Z,80.34
2018-01-31T03:45:12.491Z,80.29
2018-01-31T03:45:53.062Z,79.87
2018-01-31T03:46:33.637Z,80.25
2018-01-31T03:47:14.193Z,80.53
2018-01-31T03:47:54.756Z,80.53
2018-01-31T03:48:35.313Z,80.63
2018-01-31T03:49:15.883Z,80.06
2018-01-31T03:49:56.448Z,80.34
2018-01-31T03:50:37.008Z,80.53
2018-01-31T03:51:17.554Z,80.44
2018-01-31T03:51:58.112Z,80.06
2018-01-31T03:52:38.671Z,79.96
2018-01-31T03:53:19.233Z,79.96
2018-01-31T03:53:59.791Z,79.96
2018-01-31T03:54:40.342Z,80.25
2018-01-31T03:55:20.887Z,79.96
2018-01-31T03:56:01.470Z,80.34
2018-01-31T03:56:42.023Z,80.25
2018-01-31T03:57:22.585Z,80.06
2018-01-31T03:58:03.146Z,79.96
2018-01-31T03:58:43.714Z,80.72
2018-01-31T03:59:24.263Z,80.53
2018-01-31T04:00:04.821Z,80.44
2018-01-31T04:00:45.385Z,80.44
2018-01-31T04:01:25.935Z,80.91
2018-01-31T04:02:06.492Z,80.72
2018-01-31T04:02:47.056Z,80.91
2018-01-31T04:03:27.660Z,80.72
2018-01-31T04:04:08.163Z,80.91
2018-01-31T04:04:48.719Z,80.34
2018-01-31T04:05:29.265Z,79.96
2018-01-31T04:06:09.831Z,80.91
2018-01-31T04:06:50.384Z,80.91
2018-01-31T04:07:30.945Z,80.91
2018-01-31T04:08:11.500Z,80.53
2018-01-31T04:08:52.045Z,80.91
2018-01-31T04:09:32.595Z,81.1
2018-01-31T04:10:13.188Z,80.91
2018-01-31T04:10:53.747Z,80.72
2018-01-31T04:11:34.297Z,80.72
2018-01-31T04:12:14.876Z,80.53
2018-01-31T04:12:55.423Z,80.63
2018-01-31T04:13:35.992Z,81.1
2018-01-31T04:14:16.565Z,80.53
2018-01-31T04:14:57.125Z,80.91
2018-01-31T04:15:37.676Z,81.01
2018-01-31T04:16:18.237Z,80.82
2018-01-31T04:16:58.823Z,80.63
2018-01-31T04:17:39.381Z,80.72
2018-01-31T04:18:19.945Z,80.82
2018-01-31T04:19:00.495Z,80.72
2018-01-31T04:19:41.050Z,80.63
2018-01-31T04:20:21.637Z,80.82
2018-01-31T04:21:02.184Z,80.91
2018-01-31T04:21:42.757Z,80.82
2018-01-31T04:22:23.347Z,80.72
2018-01-31T04:23:03.922Z,80.91
2018-01-31T04:23:44.483Z,80.91
2018-01-31T04:24:25.051Z,81.57
2018-01-31T04:25:05.623Z,81.57
2018-01-31T04:25:46.176Z,81.57
2018-01-31T04:26:26.738Z,80.72
2018-01-31T04:27:07.309Z,80.91
2018-01-31T04:27:47.860Z,81.38
2018-01-31T04:28:28.452Z,81.57
2018-01-31T04:29:09.000Z,81.48
2018-01-31T04:29:49.552Z,81.38
2018-01-31T04:30:30.106Z,81.48
2018-01-31T04:31:10.658Z,81.38
2018-01-31T04:31:51.207Z,81.67
2018-01-31T04:32:31.786Z,81.2
2018-01-31T04:33:12.367Z,81.38
2018-01-31T04:33:52.920Z,81.29
2018-01-31T04:34:33.479Z,81.67
2018-01-31T04:35:14.039Z,81.1
2018-01-31T04:35:54.615Z,81.2
2018-01-31T04:36:35.184Z,81.48
2018-01-31T04:37:15.738Z,81.29
2018-01-31T04:37:56.296Z,81.38
2018-01-31T04:38:36.852Z,81.38
2018-01-31T04:39:17.496Z,81.38
2018-01-31T04:39:58.000Z,81.2
2018-01-31T04:40:38.561Z,81.48
2018-01-31T04:41:19.119Z,81.29
2018-01-31T04:41:59.704Z,81.29
2018-01-31T04:42:40.276Z,81.57
2018-01-31T04:43:20.825Z,81.1
2018-01-31T04:44:01.379Z,81.29
2018-01-31T04:44:41.932Z,81.57
2018-01-31T04:45:22.491Z,80.82
2018-01-31T04:46:03.052Z,81.2
2018-01-31T04:46:43.623Z,80.91
2018-01-31T04:47:24.178Z,80.72
2018-01-31T04:48:04.743Z,80.91
2018-01-31T04:48:45.319Z,81.01
2018-01-31T04:49:25.879Z,80.82
2018-01-31T04:50:06.449Z,80.82
2018-01-31T04:50:47.079Z,80.72
2018-01-31T04:51:27.635Z,81.01
2018-01-31T04:52:08.197Z,80.63
2018-01-31T04:52:48.752Z,81.1
2018-01-31T04:53:29.316Z,81.57
2018-01-31T04:54:09.898Z,81.48
2018-01-31T04:54:50.442Z,81.38
2018-01-31T04:55:31.019Z,80.72
2018-01-31T04:56:11.581Z,81.01
2018-01-31T04:56:52.133Z,81.1
2018-01-31T04:57:32.727Z,80.91
2018-01-31T04:58:13.274Z,81.1
2018-01-31T04:58:53.843Z,80.91
2018-01-31T04:59:34.406Z,80.91
2018-01-31T05:00:14.977Z,80.63
2018-01-31T05:00:55.550Z,80.63
2018-01-31T05:01:36.103Z,80.63
2018-01-31T05:02:16.684Z,81.01
2018-01-31T05:02:57.237Z,80.82
2018-01-31T05:03:37.811Z,81.01
2018-01-31T05:04:18.359Z,80.82
2018-01-31T05:04:58.920Z,81.01
2018-01-31T05:05:39.481Z,80.53
2018-01-31T05:06:20.050Z,80.82
2018-01-31T05:07:00.605Z,80.53
2018-01-31T05:07:41.153Z,80.82
2018-01-31T05:08:21.715Z,81.01
2018-01-31T05:09:02.303Z,80.91
2018-01-31T05:09:42.862Z,80.91
2018-01-31T05:10:23.442Z,81.2
2018-01-31T05:11:03.997Z,81.2
2018-01-31T05:11:44.551Z,81.05
2018-01-31T05:12:25.116Z,81.1
2018-01-31T05:13:05.683Z,80.72
2018-01-31T05:13:46.232Z,80.95
2018-01-31T05:14:26.783Z,81.14
2018-01-31T05:15:07.345Z,81.01
2018-01-31T05:15:47.904Z,81.2
2018-01-31T05:16:28.475Z,81.2
2018-01-31T05:17:09.034Z,80.82
2018-01-31T05:17:49.591Z,81.1
2018-01-31T05:18:30.167Z,81.2
2018-01-31T05:19:10.744Z,81.01
2018-01-31T05:19:51.303Z,80.86
2018-01-31T05:20:31.860Z,80.82
2018-01-31T05:21:12.427Z,80.63
2018-01-31T05:21:52.975Z,81.2
2018-01-31T05:22:33.546Z,80.63
2018-01-31T05:23:14.108Z,81.01
2018-01-31T05:23:54.662Z,81.67
2018-01-31T05:24:35.235Z,81.38
2018-01-31T05:25:15.811Z,81.29
2018-01-31T05:25:56.369Z,81.67
2018-01-31T05:26:36.920Z,81.38
2018-01-31T05:27:17.488Z,81.2
2018-01-31T05:27:58.059Z,81.67
2018-01-31T05:28:38.601Z,82.05
2018-01-31T05:29:19.172Z,82.05
2018-01-31T05:29:59.708Z,81.95
2018-01-31T05:30:40.274Z,82.05
2018-01-31T05:31:20.872Z,81.86
2018-01-31T05:32:01.449Z,82.05
2018-01-31T05:32:42.118Z,82.24
2018-01-31T05:33:22.670Z,82.33
2018-01-31T05:34:03.236Z,82.43
2018-01-31T05:34:43.802Z,82.71
2018-01-31T05:35:24.369Z,81.86
2018-01-31T05:36:04.917Z,82.43
2018-01-31T05:36:45.496Z,82.33
2018-01-31T05:37:26.056Z,82.24
2018-01-31T05:38:06.626Z,82.81
2018-01-31T05:38:47.193Z,82.14
2018-01-31T05:39:27.752Z,82.52
2018-01-31T05:40:08.322Z,81.95
2018-01-31T05:40:48.877Z,82.24
2018-01-31T05:41:29.432Z,82.43
2018-01-31T05:42:09.992Z,82.71
2018-01-31T05:42:50.557Z,82.71
2018-01-31T05:43:31.114Z,82.71
2018-01-31T05:44:11.660Z,82.62
2018-01-31T05:44:52.198Z,82.43
2018-01-31T05:45:32.772Z,82.24
2018-01-31T05:46:13.329Z,82.9
2018-01-31T05:46:53.880Z,82.62
2018-01-31T05:47:34.447Z,82.71
2018-01-31T05:48:15.026Z,82.33
2018-01-31T05:48:55.593Z,82.62
2018-01-31T05:49:36.162Z,83.09
2018-01-31T05:50:16.712Z,82.81
2018-01-31T05:50:57.261Z,83.18
2018-01-31T05:51:37.822Z,82.9
2018-01-31T05:52:18.377Z,83.28
2018-01-31T05:52:58.925Z,83
2018-01-31T05:53:39.492Z,83.37
2018-01-31T05:54:20.057Z,83.28
2018-01-31T05:55:00.606Z,82.52
2018-01-31T05:55:41.168Z,82.62
2018-01-31T05:56:21.717Z,83
2018-01-31T05:57:02.268Z,82.52
2018-01-31T05:57:42.859Z,82.24
2018-01-31T05:58:23.398Z,82.71
2018-01-31T05:59:03.945Z,82.71
2018-01-31T05:59:44.491Z,82.62
2018-01-31T06:00:25.044Z,82.43
2018-01-31T06:01:05.617Z,82.9
2018-01-31T06:01:46.166Z,83.18
2018-01-31T06:02:26.729Z,83.28
2018-01-31T06:03:07.280Z,83.18
2018-01-31T06:03:47.863Z,83.56
2018-01-31T06:04:28.473Z,83.66
2018-01-31T06:05:08.968Z,83.66
2018-01-31T06:05:49.518Z,83.56
2018-01-31T06:06:30.096Z,83.56
2018-01-31T06:07:10.686Z,83.66
2018-01-31T06:07:51.259Z,83.66
2018-01-31T06:08:31.911Z,83.66
2018-01-31T06:09:12.466Z,83.47
2018-01-31T06:09:53.042Z,83.37
2018-01-31T06:10:33.758Z,83.66
2018-01-31T06:11:14.331Z,83.75
2018-01-31T06:11:54.901Z,83.66
2018-01-31T06:12:35.458Z,83.66
2018-01-31T06:13:16.005Z,83.37
2018-01-31T06:13:56.557Z,83.37
2018-01-31T06:14:37.131Z,83.37
2018-01-31T06:15:17.696Z,83.09
2018-01-31T06:15:58.256Z,83.66
2018-01-31T06:16:38.818Z,83.56
2018-01-31T06:17:19.381Z,83.75
2018-01-31T06:17:59.990Z,83.66
2018-01-31T06:18:40.549Z,83.75
2018-01-31T06:19:21.087Z,83.56
2018-01-31T06:20:01.661Z,83.66
2018-01-31T06:20:42.215Z,83.75
2018-01-31T06:21:22.772Z,83.47
2018-01-31T06:22:03.325Z,83.56
2018-01-31T06:22:44.324Z,83.56
2018-01-31T06:23:24.905Z,83.37
2018-01-31T06:24:05.476Z,83.47
2018-01-31T06:24:46.889Z,83.09
2018-01-31T06:25:27.440Z,83.37
2018-01-31T06:26:08.004Z,83.37
2018-01-31T06:26:48.561Z,83.37
2018-01-31T06:27:29.107Z,83.56
2018-01-31T06:28:09.680Z,83.66
2018-01-31T06:28:50.258Z,83.75
2018-01-31T06:29:30.812Z,83.66
2018-01-31T06:30:11.387Z,83.56
2018-01-31T06:30:51.978Z,83.75
2018-01-31T06:31:32.608Z,84.23
2018-01-31T06:32:13.126Z,87.73
2018-01-31T06:32:53.700Z,90.53
2018-01-31T06:33:34.283Z,91.57
2018-01-31T06:34:14.848Z,92.99
2018-01-31T06:34:55.404Z,91.47
2018-01-31T06:35:36.006Z,89.53
2018-01-31T06:36:16.824Z,89.34
2018-01-31T06:36:57.400Z,87.25
2018-01-31T06:37:37.957Z,88.01
2018-01-31T06:38:18.526Z,90
2018-01-31T06:38:59.486Z,90.19
2018-01-31T06:39:40.050Z,89.39
2018-01-31T06:40:20.608Z,88.34
2018-01-31T06:41:01.179Z,87.3
2018-01-31T06:41:41.727Z,87.3
2018-01-31T06:42:22.323Z,86.54
2018-01-31T06:43:02.924Z,85.68
2018-01-31T06:43:43.834Z,84.01
2018-01-31T06:44:24.689Z,82.59
2018-01-31T06:45:05.252Z,81.65
2018-01-31T06:45:45.876Z,80.79
2018-01-31T06:46:26.447Z,80.41
2018-01-31T06:47:07.122Z,79.94
2018-01-31T06:47:47.726Z,79.27
2018-01-31T06:48:28.321Z,79.03
2018-01-31T06:49:08.893Z,78.17
2018-01-31T06:49:49.447Z,77.89
2018-01-31T06:50:30.043Z,78.08
2018-01-31T06:51:10.601Z,76.56
2018-01-31T06:51:51.155Z,74.75
2018-01-31T06:52:31.710Z,74.08
2018-01-31T06:53:12.315Z,73.57
2018-01-31T06:53:52.988Z,73.29
2018-01-31T06:54:33.735Z,73.67
2018-01-31T06:55:14.288Z,73.48
2018-01-31T06:55:54.844Z,74.05
2018-01-31T06:56:35.449Z,74.33
2018-01-31T06:57:16.006Z,74.58
2018-01-31T06:57:56.561Z,75.34
2018-01-31T06:58:37.112Z,75.72
2018-01-31T06:59:17.676Z,75.72
2018-01-31T06:59:58.247Z,75.81
2018-01-31T07:00:38.815Z,76.1
2018-01-31T07:01:19.372Z,76.29
2018-01-31T07:01:59.951Z,76.95
2018-01-31T07:02:40.505Z,77.24
2018-01-31T07:03:21.167Z,77.24
2018-01-31T07:04:01.876Z,77.86
2018-01-31T07:04:42.452Z,77.48
2018-01-31T07:05:23.087Z,77.77
2018-01-31T07:06:04.523Z,78.15
2018-01-31T07:06:45.079Z,78.43
2018-01-31T07:07:25.693Z,78.43
2018-01-31T07:08:06.281Z,78.91
2018-01-31T07:08:46.827Z,78.72
2018-01-31T07:09:27.414Z,78.91
2018-01-31T07:10:07.960Z,78.91
2018-01-31T07:10:48.538Z,79
2018-01-31T07:11:29.100Z,78.91
2018-01-31T07:12:09.661Z,79.28
2018-01-31T07:12:50.207Z,79.19
2018-01-31T07:13:30.817Z,79.19
2018-01-31T07:14:11.371Z,79.28
2018-01-31T07:14:51.943Z,80.04
2018-01-31T07:15:32.532Z,79.85
2018-01-31T07:16:13.133Z,80.04
2018-01-31T07:16:53.669Z,80.14
2018-01-31T07:17:34.227Z,80.24
2018-01-31T07:18:14.774Z,80.24
2018-01-31T07:18:55.358Z,80.24
2018-01-31T07:19:35.922Z,80.52
2018-01-31T07:20:16.810Z,80.52
2018-01-31T07:20:57.380Z,80.9
2018-01-31T07:21:37.940Z,80.9
2018-01-31T07:22:18.509Z,81.09
2018-01-31T07:22:59.074Z,80.8
2018-01-31T07:23:39.642Z,80.99
2018-01-31T07:24:20.212Z,80.9
2018-01-31T07:25:00.830Z,81.37
2018-01-31T07:25:43.411Z,80.8
2018-01-31T07:26:23.978Z,81.66
2018-01-31T07:27:04.584Z,81.75
2018-01-31T07:27:45.133Z,81.37
2018-01-31T07:28:27.479Z,81.66
2018-01-31T07:29:06.708Z,81.75
2018-01-31T07:29:47.266Z,82.04
2018-01-31T07:30:27.972Z,82.04
2018-01-31T07:31:08.760Z,82.04
2018-01-31T07:31:49.322Z,82.56
2018-01-31T07:32:29.881Z,82.23
2018-01-31T07:33:10.437Z,82.32
2018-01-31T07:33:51.674Z,82.13
2018-01-31T07:34:32.288Z,82.09
2018-01-31T07:35:12.949Z,82.13
2018-01-31T07:35:53.517Z,81.94
2018-01-31T07:36:35.025Z,82.6
2018-01-31T07:37:15.588Z,82.32
2018-01-31T07:37:56.154Z,82.51
2018-01-31T07:38:36.722Z,82.51
2018-01-31T07:39:17.361Z,82.51
2018-01-31T07:39:57.932Z,82.51
2018-01-31T07:40:38.468Z,82.51
2018-01-31T07:41:19.053Z,82.32
2018-01-31T07:41:59.602Z,82.23
2018-01-31T07:42:40.204Z,82.51
2018-01-31T07:43:20.770Z,81.94
2018-01-31T07:44:01.448Z,82.79
2018-01-31T07:44:42.005Z,82.89
2018-01-31T07:45:22.558Z,82.7
2018-01-31T07:46:03.130Z,82.7
2018-01-31T07:46:43.694Z,82.7
2018-01-31T07:47:24.293Z,82.7
2018-01-31T07:48:05.351Z,82.42
2018-01-31T07:48:45.902Z,82.7
2018-01-31T07:49:26.479Z,82.23
2018-01-31T07:50:07.048Z,82.7
2018-01-31T07:50:47.713Z,82.32
2018-01-31T07:51:28.285Z,82.98
2018-01-31T07:52:08.975Z,82.98
2018-01-31T07:52:49.595Z,82.79
2018-01-31T07:53:30.393Z,83.17
2018-01-31T07:54:10.976Z,83.46
2018-01-31T07:54:51.541Z,83.17
2018-01-31T07:55:32.091Z,83.08
2018-01-31T07:56:12.643Z,83.17
2018-01-31T07:56:53.206Z,83.27
2018-01-31T07:57:33.779Z,83.36
2018-01-31T07:58:14.332Z,82.98
2018-01-31T07:58:54.894Z,82.98
2018-01-31T07:59:35.450Z,83.36
2018-01-31T08:00:16.004Z,83.27
2018-01-31T08:00:56.565Z,83.27
2018-01-31T08:01:37.129Z,83.27
2018-01-31T08:02:17.686Z,83.08
2018-01-31T08:02:58.266Z,83.36
2018-01-31T08:03:38.830Z,83.08
2018-01-31T08:04:19.388Z,83.17
2018-01-31T08:04:59.942Z,83.36
2018-01-31T08:05:40.504Z,83.46
2018-01-31T08:06:21.055Z,83.17
2018-01-31T08:07:01.620Z,83.27
2018-01-31T08:07:42.158Z,83.46
2018-01-31T08:08:22.700Z,83.36
2018-01-31T08:09:03.258Z,83.65
2018-01-31T08:09:43.820Z,83.55
2018-01-31T08:10:25.339Z,83.74
2018-01-31T08:11:05.892Z,83.46
2018-01-31T08:11:46.457Z,83.55
2018-01-31T08:12:27.033Z,83.94
2018-01-31T08:13:07.587Z,84.12
2018-01-31T08:13:48.140Z,84.03
2018-01-31T08:14:28.692Z,83.94
2018-01-31T08:15:09.251Z,84.22
2018-01-31T08:15:49.800Z,84.22
2018-01-31T08:16:30.344Z,84.22
2018-01-31T08:17:10.898Z,84.12
2018-01-31T08:17:51.447Z,84.03
2018-01-31T08:18:31.995Z,84.03
2018-01-31T08:19:12.543Z,84.12
2018-01-31T08:19:53.097Z,84.59
2018-01-31T08:20:33.653Z,84.69
2018-01-31T08:21:14.269Z,84.5
2018-01-31T08:21:54.831Z,84.78
2018-01-31T08:22:35.384Z,84.69
2018-01-31T08:23:15.944Z,84.78
2018-01-31T08:23:56.503Z,84.69
2018-01-31T08:24:37.063Z,84.69
2018-01-31T08:25:17.629Z,85.17
2018-01-31T08:25:58.192Z,84.88
2018-01-31T08:26:38.792Z,85.45
2018-01-31T08:27:19.363Z,85.36
2018-01-31T08:27:59.903Z,85.07
2018-01-31T08:28:40.498Z,85.55
2018-01-31T08:29:21.064Z,86.02
2018-01-31T08:30:01.622Z,85.83
2018-01-31T08:30:42.187Z,86.02
2018-01-31T08:31:22.740Z,86.59
2018-01-31T08:32:03.294Z,86.3
2018-01-31T08:32:43.848Z,86.3
2018-01-31T08:33:24.407Z,86.59
2018-01-31T08:34:04.957Z,87.35
2018-01-31T08:34:45.522Z,87.16
2018-01-31T08:35:26.075Z,87.06
2018-01-31T08:36:06.638Z,87.06
2018-01-31T08:36:47.193Z,87.63
2018-01-31T08:37:27.762Z,87.16
2018-01-31T08:38:08.296Z,87.35
2018-01-31T08:38:48.857Z,87.92
2018-01-31T08:39:29.411Z,87.63
2018-01-31T08:40:09.971Z,88.1
2018-01-31T08:40:50.507Z,88.48
2018-01-31T08:41:31.112Z,88.48
2018-01-31T08:42:11.675Z,88.39
2018-01-31T08:42:52.229Z,88.2
2018-01-31T08:43:32.778Z,88.39
2018-01-31T08:44:13.345Z,88.96
2018-01-31T08:44:53.894Z,88.39
2018-01-31T08:45:34.445Z,89.06
2018-01-31T08:46:15.032Z,88.96
2018-01-31T08:46:55.582Z,89.25
2018-01-31T08:47:36.126Z,88.87
2018-01-31T08:48:16.687Z,89.15
2018-01-31T08:48:57.242Z,89.06
2018-01-31T08:49:37.804Z,89.15
2018-01-31T08:50:18.381Z,89.15
2018-01-31T08:50:58.940Z,89.06
2018-01-31T08:51:39.505Z,88.96
2018-01-31T08:52:20.065Z,89.81
2018-01-31T08:53:00.634Z,89.62
2018-01-31T08:53:41.187Z,89.86
2018-01-31T08:54:21.748Z,89.76
2018-01-31T08:55:02.298Z,90.29
2018-01-31T08:55:42.853Z,90
2018-01-31T08:56:23.403Z,90.24
2018-01-31T08:57:03.960Z,89.86
2018-01-31T08:57:44.515Z,90.14
2018-01-31T08:58:25.081Z,90.52
2018-01-31T08:59:05.638Z,90.67
2018-01-31T08:59:46.206Z,91.28
2018-01-31T09:00:26.753Z,91.38
2018-01-31T09:01:07.319Z,91.38
2018-01-31T09:01:47.880Z,91.09
2018-01-31T09:02:28.424Z,91.94
2018-01-31T09:03:08.976Z,91.47
2018-01-31T09:03:49.529Z,91.75
2018-01-31T09:04:30.066Z,91.85
2018-01-31T09:05:10.627Z,91.75
2018-01-31T09:05:51.167Z,91.75
2018-01-31T09:06:31.725Z,91.56
2018-01-31T09:07:12.278Z,91.85
2018-01-31T09:07:52.827Z,91.56
2018-01-31T09:08:33.381Z,91.75
2018-01-31T09:09:13.918Z,92.33
2018-01-31T09:09:54.482Z,92.04
2018-01-31T09:10:35.044Z,92.14
2018-01-31T09:11:15.588Z,92.71
2018-01-31T09:11:56.122Z,92.42
2018-01-31T09:12:36.688Z,92.33
2018-01-31T09:13:17.225Z,92.33
2018-01-31T09:13:57.792Z,92.42
2018-01-31T09:14:38.347Z,92.42
2018-01-31T09:15:18.896Z,92.23
2018-01-31T09:15:59.442Z,92.42
2018-01-31T09:16:39.992Z,92.52
2018-01-31T09:17:20.545Z,92.9
2018-01-31T09:18:01.094Z,93.08
2018-01-31T09:18:41.680Z,93.27
2018-01-31T09:19:22.251Z,92.9
2018-01-31T09:20:02.801Z,93.08
2018-01-31T09:20:43.361Z,93.08
2018-01-31T09:21:23.920Z,92.71
2018-01-31T09:22:04.474Z,93.27
2018-01-31T09:22:45.062Z,92.9
2018-01-31T09:23:25.613Z,93.27
2018-01-31T09:24:06.153Z,93.27
2018-01-31T09:24:46.713Z,93.08
2018-01-31T09:25:27.273Z,93.18
2018-01-31T09:26:07.835Z,93.08
2018-01-31T09:26:48.418Z,93.65
2018-01-31T09:27:28.973Z,94.32
2018-01-31T09:28:09.550Z,93.84
2018-01-31T09:28:50.103Z,94.03
2018-01-31T09:29:30.650Z,94.13
2018-01-31T09:30:11.211Z,94.51
2018-01-31T09:30:51.756Z,94.98
2018-01-31T09:31:32.309Z,94.42
2018-01-31T09:32:12.898Z,94.98
2018-01-31T09:32:53.415Z,94.7
2018-01-31T09:33:33.965Z,95.36
2018-01-31T09:34:14.515Z,95.27
2018-01-31T09:34:55.062Z,95.27
2018-01-31T09:35:35.635Z,94.98
2018-01-31T09:36:16.172Z,96.03
2018-01-31T09:36:56.716Z,95.93
2018-01-31T09:37:37.266Z,95.84
2018-01-31T09:38:17.820Z,96.12
2018-01-31T09:38:58.368Z,96.03
2018-01-31T09:39:38.915Z,95.84
2018-01-31T09:40:19.462Z,95.84
2018-01-31T09:41:00.025Z,95.84
2018-01-31T09:41:40.587Z,96.03
2018-01-31T09:42:21.141Z,95.74
2018-01-31T09:43:01.726Z,96.59
2018-01-31T09:43:42.285Z,96.5
2018-01-31T09:44:22.852Z,96.88
2018-01-31T09:45:03.394Z,96.78
2018-01-31T09:45:43.953Z,96.59
2018-01-31T09:46:24.513Z,96.5
2018-01-31T09:47:05.060Z,96.69
2018-01-31T09:47:45.635Z,97.26
2018-01-31T09:48:26.177Z,96.88
2018-01-31T09:49:06.733Z,96.97
2018-01-31T09:49:47.295Z,97.26
2018-01-31T09:50:27.855Z,97.55
2018-01-31T09:51:08.416Z,97.17
2018-01-31T09:51:49.020Z,97.74
2018-01-31T09:52:29.569Z,98.11
2018-01-31T09:53:10.137Z,97.17
2018-01-31T09:53:50.696Z,97.07
2018-01-31T09:54:31.247Z,98.02
2018-01-31T09:55:11.796Z,98.02
2018-01-31T09:55:52.350Z,98.59
2018-01-31T09:56:32.908Z,98.59
2018-01-31T09:57:13.472Z,98.21
2018-01-31T09:57:54.033Z,98.68
2018-01-31T09:58:34.585Z,98.78
2018-01-31T09:59:15.145Z,98.49
2018-01-31T09:59:55.698Z,99.73
2018-01-31T10:00:36.263Z,99.63
2018-01-31T10:01:16.817Z,99.35
2018-01-31T10:01:57.388Z,99.82
2018-01-31T10:02:37.967Z,99.63
2018-01-31T10:03:18.503Z,99.91
2018-01-31T10:03:59.059Z,99.73
2018-01-31T10:04:39.621Z,99.91
2018-01-31T10:05:20.164Z,99.82
2018-01-31T10:06:00.750Z,99.99
2018-01-31T10:06:41.316Z,99.99
2018-01-31T10:07:21.888Z,99.99
2018-01-31T10:08:02.444Z,99.99
2018-01-31T10:08:43.003Z,99.99
2018-01-31T10:09:23.564Z,99.99
2018-01-31T10:10:04.105Z,99.99
2018-01-31T10:10:44.659Z,99.99
2018-01-31T10:11:25.206Z,99.99
2018-01-31T10:12:05.767Z,99.99
2018-01-31T10:12:46.312Z,99.99
2018-01-31T10:13:26.869Z,99.99
2018-01-31T10:14:07.440Z,99.99
2018-01-31T10:14:47.981Z,99.99
2018-01-31T10:15:28.518Z,99.99
2018-01-31T10:16:09.098Z,99.99
2018-01-31T10:16:49.649Z,99.99
2018-01-31T10:17:30.211Z,99.99
2018-01-31T10:18:10.788Z,99.99
2018-01-31T10:18:51.340Z,99.99
2018-01-31T10:19:31.941Z,99.99
2018-01-31T10:20:12.493Z,99.99
2018-01-31T10:20:53.043Z,99.99
2018-01-31T10:21:33.597Z,99.99
2018-01-31T10:22:14.163Z,99.99
2018-01-31T10:22:54.729Z,99.99
2018-01-31T10:23:35.307Z,99.99
2018-01-31T10:24:15.884Z,99.99
2018-01-31T10:24:56.442Z,99.99
2018-01-31T10:25:36.990Z,99.99
2018-01-31T10:26:17.541Z,99.99
2018-01-31T10:26:58.102Z,99.99
2018-01-31T10:27:38.651Z,99.99
2018-01-31T10:28:19.209Z,99.99
2018-01-31T10:28:59.766Z,99.99
2018-01-31T10:29:40.332Z,99.99
2018-01-31T10:30:20.889Z,99.99
2018-01-31T10:31:01.427Z,99.99
2018-01-31T10:31:42.110Z,99.99
2018-01-31T10:32:22.831Z,99.99
2018-01-31T10:33:03.616Z,99.99
2018-01-31T10:33:44.321Z,99.99
2018-01-31T10:34:25.128Z,99.99
2018-01-31T10:35:05.859Z,99.99
2018-01-31T10:35:46.505Z,99.99
2018-01-31T10:36:27.075Z,99.99
2018-01-31T10:37:07.632Z,99.99